createdAt,value
2023-11-27T00:01:03.828Z,5.80
2023-11-27T00:03:31.961Z,4.77
2023-11-27T00:06:00.269Z,3.30
2023-11-27T00:08:29.663Z,4.53
2023-11-27T00:11:00.076Z,4.77
2023-11-27T00:13:29.412Z,4.93
2023-11-27T00:15:57.437Z,5.80
2023-11-27T00:18:25.501Z,4.60
2023-11-27T00:20:54.129Z,5.60
2023-11-27T00:23:22.329Z,4.93
2023-11-27T00:25:52.090Z,3.97
2023-11-27T00:28:20.388Z,5.00
2023-11-27T00:30:48.641Z,3.70
2023-11-27T00:33:16.985Z,3.87
2023-11-27T00:35:45.183Z,3.00
2023-11-27T00:38:13.308Z,4.60
2023-11-27T00:40:41.322Z,5.30
2023-11-27T00:43:10.882Z,3.13
2023-11-27T00:45:38.838Z,3.47
2023-11-27T00:48:07.333Z,4.33
2023-11-27T00:50:35.325Z,4.53
2023-11-27T00:53:03.318Z,6.30
2023-11-27T00:55:31.286Z,4.47
2023-11-27T00:57:59.233Z,3.30
2023-11-27T01:00:29.130Z,6.43
2023-11-27T01:02:57.340Z,5.30
2023-11-27T01:05:26.052Z,3.60
2023-11-27T01:07:54.160Z,4.03
2023-11-27T01:10:23.246Z,3.00
2023-11-27T01:12:52.172Z,4.43
2023-11-27T01:15:22.529Z,4.53
2023-11-27T01:17:52.345Z,4.90
2023-11-27T01:20:20.601Z,4.10
2023-11-27T01:22:48.714Z,3.63
2023-11-27T01:25:16.908Z,3.53
2023-11-27T01:27:45.327Z,3.83
2023-11-27T01:30:14.586Z,2.73
2023-11-27T01:32:43.585Z,2.13
2023-11-27T01:35:13.309Z,3.97
2023-11-27T01:37:41.523Z,5.23
2023-11-27T01:40:11.349Z,3.97
2023-11-27T01:42:39.668Z,4.87
2023-11-27T01:45:08.875Z,3.57
2023-11-27T01:47:37.204Z,6.50
2023-11-27T01:50:07.213Z,4.50
2023-11-27T01:52:39.907Z,3.23
2023-11-27T01:55:09.202Z,4.00
2023-11-27T01:57:37.899Z,3.77
2023-11-27T02:00:07.219Z,2.57
2023-11-27T02:02:35.518Z,4.17
2023-11-27T02:05:03.522Z,4.00
2023-11-27T02:07:31.498Z,3.20
2023-11-27T02:10:00.945Z,2.37
2023-11-27T02:12:29.430Z,3.33
2023-11-27T02:14:57.496Z,2.40
2023-11-27T02:17:25.520Z,3.07
2023-11-27T02:19:53.759Z,3.60
2023-11-27T02:22:24.280Z,3.83
2023-11-27T02:24:53.767Z,5.47
2023-11-27T02:27:23.200Z,2.87
2023-11-27T02:29:51.111Z,4.30
2023-11-27T02:32:19.184Z,5.27
2023-11-27T02:34:48.598Z,2.03
2023-11-27T02:37:16.629Z,3.10
2023-11-27T02:39:44.769Z,5.77
2023-11-27T02:42:14.127Z,3.23
2023-11-27T02:44:42.215Z,2.50
2023-11-27T02:47:10.242Z,3.60
2023-11-27T02:49:39.361Z,3.33
2023-11-27T02:52:07.726Z,2.70
2023-11-27T02:54:35.962Z,4.00
2023-11-27T02:57:04.183Z,2.07
2023-11-27T02:59:33.576Z,3.27
2023-11-27T03:02:01.744Z,1.83
2023-11-27T03:04:32.122Z,2.13
2023-11-27T03:07:00.555Z,2.63
2023-11-27T03:09:28.540Z,1.70
2023-11-27T03:11:56.714Z,1.77
2023-11-27T03:14:24.774Z,1.80
2023-11-27T03:16:54.224Z,3.70
2023-11-27T03:19:24.122Z,3.60
2023-11-27T03:21:55.768Z,4.90
2023-11-27T03:24:23.885Z,1.87
2023-11-27T03:26:53.061Z,6.00
2023-11-27T03:29:21.116Z,5.23
2023-11-27T03:31:49.318Z,2.37
2023-11-27T03:34:19.040Z,2.50
2023-11-27T03:36:47.181Z,2.80
2023-11-27T03:39:15.254Z,1.60
2023-11-27T03:41:43.902Z,3.07
2023-11-27T03:44:11.814Z,1.60
2023-11-27T03:46:39.876Z,2.37
2023-11-27T03:49:08.522Z,1.30
2023-11-27T03:51:39.033Z,1.43
2023-11-27T03:54:08.163Z,1.93
2023-11-27T03:56:36.484Z,3.20
2023-11-27T03:59:04.532Z,2.47
2023-11-27T04:01:32.761Z,1.20
2023-11-27T04:04:02.056Z,1.93
2023-11-27T04:06:32.823Z,1.60
2023-11-27T04:09:02.423Z,1.63
2023-11-27T04:11:32.164Z,1.83
2023-11-27T04:14:00.112Z,2.60
2023-11-27T04:16:28.463Z,1.70
2023-11-27T04:18:56.491Z,3.20
2023-11-27T04:21:24.701Z,1.73
2023-11-27T04:23:53.651Z,1.43
2023-11-27T04:26:23.271Z,1.93
2023-11-27T04:28:51.258Z,2.43
2023-11-27T04:31:19.389Z,4.53
2023-11-27T04:33:48.961Z,1.50
2023-11-27T04:36:19.825Z,1.47
2023-11-27T04:38:49.904Z,1.07
2023-11-27T04:41:18.242Z,2.20
2023-11-27T04:43:47.626Z,1.80
2023-11-27T04:46:15.742Z,1.43
2023-11-27T04:48:43.930Z,1.30
2023-11-27T04:51:12.047Z,1.17
2023-11-27T04:53:40.327Z,2.30
2023-11-27T04:56:09.440Z,6.47
2023-11-27T04:58:37.957Z,1.13
2023-11-27T05:01:07.699Z,1.80
2023-11-27T05:03:35.667Z,1.00
2023-11-27T05:06:04.738Z,1.87
2023-11-27T05:08:32.811Z,2.50
2023-11-27T05:11:00.942Z,1.13
2023-11-27T05:13:29.085Z,1.20
2023-11-27T05:15:57.370Z,2.97
2023-11-27T05:18:26.678Z,1.90
2023-11-27T05:20:54.714Z,2.10
2023-11-27T05:23:22.899Z,2.97
2023-11-27T05:25:50.976Z,2.40
2023-11-27T05:28:18.934Z,5.63
2023-11-27T05:30:47.015Z,2.40
2023-11-27T05:33:18.252Z,2.10
2023-11-27T05:35:47.788Z,1.93
2023-11-27T05:38:15.716Z,1.93
2023-11-27T05:40:44.471Z,1.93
2023-11-27T05:43:12.905Z,2.50
2023-11-27T05:45:41.705Z,2.40
2023-11-27T05:48:10.039Z,1.57
2023-11-27T05:50:42.435Z,1.93
2023-11-27T05:53:11.719Z,6.07
2023-11-27T05:55:39.671Z,2.20
2023-11-27T05:58:09.379Z,1.37
2023-11-27T06:00:37.703Z,2.27
2023-11-27T06:03:05.788Z,3.77
2023-11-27T06:05:33.901Z,1.63
2023-11-27T06:08:02.193Z,2.53
2023-11-27T06:10:31.833Z,2.00
2023-11-27T06:13:00.028Z,2.07
2023-11-27T06:15:28.007Z,4.23
2023-11-27T06:17:56.113Z,2.20
2023-11-27T06:20:24.316Z,1.70
2023-11-27T06:22:52.712Z,2.00
2023-11-27T06:25:20.625Z,1.43
2023-11-27T06:27:50.074Z,1.90
2023-11-27T06:30:18.051Z,1.73
2023-11-27T06:32:46.185Z,2.20
2023-11-27T06:35:15.227Z,3.30
2023-11-27T06:37:43.174Z,1.60
2023-11-27T06:40:13.219Z,2.07
2023-11-27T06:42:41.767Z,2.90
2023-11-27T06:45:12.176Z,2.10
2023-11-27T06:47:40.795Z,2.00
2023-11-27T06:50:09.479Z,2.67
2023-11-27T06:52:37.613Z,2.33
2023-11-27T06:55:06.372Z,1.90
2023-11-27T06:57:34.730Z,2.77
2023-11-27T07:00:02.676Z,2.77
2023-11-27T07:02:33.178Z,1.90
2023-11-27T07:05:01.158Z,1.60
2023-11-27T07:07:29.982Z,3.33
2023-11-27T07:09:57.983Z,1.40
2023-11-27T07:12:26.252Z,1.33
2023-11-27T07:14:54.604Z,3.00
2023-11-27T07:17:23.121Z,2.00
2023-11-27T07:19:52.651Z,2.93
2023-11-27T07:22:20.777Z,3.10
2023-11-27T07:24:51.852Z,2.30
2023-11-27T07:27:20.036Z,2.47
2023-11-27T07:29:48.412Z,2.77
2023-11-27T07:32:17.204Z,2.40
2023-11-27T07:34:45.186Z,1.50
2023-11-27T07:37:15.294Z,2.07
2023-11-27T07:39:45.824Z,2.10
2023-11-27T07:42:15.837Z,2.50
2023-11-27T07:44:44.631Z,3.63
2023-11-27T07:47:13.055Z,2.00
2023-11-27T07:49:41.331Z,3.90
2023-11-27T07:52:09.536Z,3.17
2023-11-27T07:54:39.119Z,1.60
2023-11-27T07:57:08.322Z,2.20
2023-11-27T07:59:36.422Z,2.30
2023-11-27T08:02:04.899Z,2.37
2023-11-27T08:04:34.048Z,4.30
2023-11-27T08:07:02.541Z,2.77
2023-11-27T08:09:30.486Z,3.30
2023-11-27T08:12:00.866Z,2.60
2023-11-27T08:14:28.850Z,6.40
2023-11-27T08:16:57.032Z,2.60
2023-11-27T08:19:25.028Z,2.33
2023-11-27T08:21:53.735Z,3.20
2023-11-27T08:24:22.103Z,2.50
2023-11-27T08:26:51.661Z,1.60
2023-11-27T08:29:21.418Z,4.97
2023-11-27T08:31:49.412Z,3.67
2023-11-27T08:34:17.585Z,2.47
2023-11-27T08:36:46.216Z,4.17
2023-11-27T08:39:15.378Z,2.23
2023-11-27T08:41:44.095Z,4.60
2023-11-27T08:44:12.194Z,1.47
2023-11-27T08:46:41.737Z,3.05
2023-11-27T08:49:11.254Z,2.53
2023-11-27T08:51:39.198Z,1.43
2023-11-27T08:54:09.584Z,4.07
2023-11-27T08:56:41.924Z,3.73
2023-11-27T08:59:10.109Z,4.20
2023-11-27T09:01:38.649Z,4.88
2023-11-27T09:04:10.105Z,2.17
2023-11-27T09:06:38.258Z,3.00
2023-11-27T09:09:08.513Z,3.00
2023-11-27T09:11:39.538Z,6.23
2023-11-27T09:14:07.862Z,0.80
2023-11-27T09:16:36.128Z,2.47
2023-11-27T09:19:04.893Z,2.77
2023-11-27T09:21:34.353Z,1.37
2023-11-27T09:24:03.295Z,2.00
2023-11-27T09:26:32.420Z,2.80
2023-11-27T09:29:00.596Z,1.70
2023-11-27T09:31:30.311Z,4.73
2023-11-27T09:33:58.744Z,2.27
2023-11-27T09:36:27.748Z,2.10
2023-11-27T09:38:57.117Z,2.97
2023-11-27T09:41:25.182Z,3.10
2023-11-27T09:43:53.833Z,3.27
2023-11-27T09:46:25.298Z,4.33
2023-11-27T09:48:58.317Z,2.33
2023-11-27T09:51:26.909Z,1.57
2023-11-27T09:53:58.364Z,4.57
2023-11-27T09:56:32.071Z,2.87
2023-11-27T09:59:02.868Z,1.90
2023-11-27T10:01:34.910Z,4.00
2023-11-27T10:04:09.799Z,6.13
2023-11-27T10:06:42.824Z,4.77
2023-11-27T10:09:14.866Z,4.63
2023-11-27T10:11:47.259Z,8.67
2023-11-27T10:14:35.665Z,3.90
2023-11-27T10:17:08.980Z,3.63
2023-11-27T10:19:43.194Z,4.27
2023-11-27T10:22:13.204Z,4.00
2023-11-27T10:24:44.568Z,5.90
2023-11-27T10:27:12.658Z,2.33
2023-11-27T10:29:41.185Z,3.57
2023-11-27T10:32:11.488Z,7.07
2023-11-27T10:34:41.724Z,1.70
2023-11-27T10:37:09.708Z,2.00
2023-11-27T10:39:38.993Z,1.87
2023-11-27T10:42:09.420Z,2.50
2023-11-27T10:44:38.665Z,3.20
2023-11-27T10:47:09.862Z,4.67
2023-11-27T10:49:40.951Z,4.13
2023-11-27T10:52:10.667Z,5.10
2023-11-27T10:54:41.486Z,5.40
2023-11-27T10:57:11.652Z,2.53
2023-11-27T10:59:43.201Z,3.00
2023-11-27T11:02:13.824Z,3.80
2023-11-27T11:04:52.439Z,5.67
2023-11-27T11:07:23.250Z,1.97
2023-11-27T11:09:51.895Z,7.90
2023-11-27T11:12:24.978Z,1.30
2023-11-27T11:14:54.517Z,2.90
2023-11-27T11:17:38.340Z,3.25
2023-11-27T11:20:26.537Z,3.67
2023-11-27T11:23:03.154Z,3.23
2023-11-27T11:25:41.097Z,5.03
2023-11-27T11:28:16.939Z,6.77
2023-11-27T11:30:45.248Z,1.80
2023-11-27T11:33:20.116Z,5.13
2023-11-27T11:35:52.529Z,1.93
2023-11-27T11:38:23.366Z,5.23
2023-11-27T11:40:52.809Z,3.87
2023-11-27T11:43:25.476Z,2.00
2023-11-27T11:45:56.896Z,3.00
2023-11-27T11:48:38.424Z,4.60
2023-11-27T11:51:16.995Z,3.23
2023-11-27T11:53:48.976Z,4.30
2023-11-27T11:56:24.537Z,6.67
2023-11-27T11:58:58.838Z,2.10
2023-11-27T12:01:33.645Z,4.13
2023-11-27T12:04:07.069Z,2.63
2023-11-27T12:06:35.527Z,2.03
2023-11-27T12:09:04.817Z,3.33
2023-11-27T12:11:32.892Z,4.80
2023-11-27T12:14:11.454Z,2.80
2023-11-27T12:16:41.040Z,2.67
2023-11-27T12:19:10.046Z,2.13
2023-11-27T12:21:43.123Z,5.73
2023-11-27T12:24:13.192Z,7.93
2023-11-27T12:26:41.179Z,8.70
2023-11-27T12:29:10.516Z,4.70
2023-11-27T12:31:39.530Z,6.17
2023-11-27T12:34:08.058Z,6.10
2023-11-27T12:36:36.073Z,4.17
2023-11-27T12:39:04.766Z,8.07
2023-11-27T12:41:36.122Z,8.27
2023-11-27T12:44:17.221Z,4.10
2023-11-27T12:46:50.876Z,1.63
2023-11-27T12:49:21.518Z,9.23
2023-11-27T12:51:52.681Z,2.73
2023-11-27T12:54:23.194Z,5.00
2023-11-27T12:56:52.187Z,2.80
2023-11-27T12:59:25.405Z,1.57
2023-11-27T13:01:58.897Z,3.70
2023-11-27T13:04:31.051Z,3.73
2023-11-27T13:07:00.307Z,5.75
2023-11-27T13:09:28.365Z,2.45
2023-11-27T13:11:56.747Z,5.07
2023-11-27T13:14:26.174Z,1.87
2023-11-27T13:16:54.523Z,3.07
2023-11-27T13:19:25.169Z,1.53
2023-11-27T13:21:56.813Z,3.30
2023-11-27T13:24:30.845Z,2.30
2023-11-27T13:27:06.556Z,5.50
2023-11-27T13:29:36.012Z,4.43
2023-11-27T13:32:04.747Z,6.27
2023-11-27T13:34:37.073Z,2.83
2023-11-27T13:37:09.251Z,5.67
2023-11-27T13:39:41.756Z,3.17
2023-11-27T13:42:10.738Z,6.87
2023-11-27T13:44:40.204Z,2.20
2023-11-27T13:47:10.920Z,2.73
2023-11-27T13:49:42.251Z,7.37
2023-11-27T13:52:17.537Z,3.73
2023-11-27T13:54:49.902Z,3.30
2023-11-27T13:57:28.383Z,2.33
2023-11-27T13:59:58.782Z,2.00
2023-11-27T14:02:29.684Z,8.60
2023-11-27T14:05:07.710Z,3.60
2023-11-27T14:07:42.303Z,5.23
2023-11-27T14:10:26.832Z,4.43
2023-11-27T14:13:02.107Z,2.13
2023-11-27T14:15:40.835Z,3.17
2023-11-27T14:18:28.692Z,6.43
2023-11-27T14:21:10.689Z,2.93
2023-11-27T14:23:50.825Z,2.27
2023-11-27T14:26:37.497Z,2.17
2023-11-27T14:29:11.930Z,2.23
2023-11-27T14:31:41.245Z,1.50
2023-11-27T14:34:13.127Z,1.23
2023-11-27T14:36:41.867Z,2.57
2023-11-27T14:39:17.721Z,1.30
2023-11-27T14:41:48.917Z,4.17
2023-11-27T14:44:19.360Z,8.80
2023-11-27T14:46:52.410Z,5.30
2023-11-27T14:49:20.740Z,2.07
2023-11-27T14:51:50.850Z,4.20
2023-11-27T14:54:18.953Z,3.00
2023-11-27T14:56:47.190Z,2.27
2023-11-27T14:59:15.305Z,2.97
2023-11-27T15:01:45.347Z,1.63
2023-11-27T15:04:15.771Z,2.57
2023-11-27T15:06:44.987Z,1.13
2023-11-27T15:09:19.927Z,2.17
2023-11-27T15:11:47.936Z,4.63
2023-11-27T15:14:17.470Z,1.63
2023-11-27T15:16:46.888Z,2.40
2023-11-27T15:19:17.935Z,2.00
2023-11-27T15:21:46.432Z,3.37
2023-11-27T15:24:16.011Z,2.70
2023-11-27T15:26:44.966Z,6.00
2023-11-27T15:29:14.888Z,2.07
2023-11-27T15:31:42.900Z,4.63
2023-11-27T15:34:10.968Z,3.80
2023-11-27T15:36:41.094Z,16.03
2023-11-27T15:39:23.882Z,3.20
2023-11-27T15:41:53.427Z,7.43
2023-11-27T15:44:21.661Z,3.73
2023-11-27T15:46:50.933Z,3.50
2023-11-27T15:49:19.244Z,3.40
2023-11-27T15:51:48.622Z,3.67
2023-11-27T15:54:17.531Z,4.63
2023-11-27T15:56:45.613Z,6.70
2023-11-27T15:59:14.759Z,2.90
2023-11-27T16:01:42.974Z,3.30
2023-11-27T16:04:13.536Z,3.63
2023-11-27T16:06:41.615Z,2.20
2023-11-27T16:09:11.171Z,2.67
2023-11-27T16:11:39.741Z,4.13
2023-11-27T16:14:13.896Z,2.17
2023-11-27T16:16:46.174Z,2.63
2023-11-27T16:19:15.653Z,3.20
2023-11-27T16:21:43.973Z,6.73
2023-11-27T16:24:14.092Z,2.70
2023-11-27T16:26:42.215Z,3.60
2023-11-27T16:29:11.674Z,4.57
2023-11-27T16:31:40.697Z,3.78
2023-11-27T16:34:08.777Z,3.73
2023-11-27T16:36:36.850Z,3.40
2023-11-27T16:39:07.454Z,3.53
2023-11-27T16:41:36.861Z,9.00
2023-11-27T16:44:05.441Z,4.80
2023-11-27T16:46:34.708Z,5.63
2023-11-27T16:49:04.144Z,5.13
2023-11-27T16:51:32.519Z,9.73
2023-11-27T16:54:01.100Z,4.95
2023-11-27T16:56:29.940Z,4.53
2023-11-27T16:58:59.318Z,7.47
2023-11-27T17:01:27.437Z,7.20
2023-11-27T17:04:01.149Z,3.40
2023-11-27T17:06:29.603Z,8.90
2023-11-27T17:08:57.825Z,4.60
2023-11-27T17:11:25.861Z,7.50
2023-11-27T17:13:54.623Z,5.20
2023-11-27T17:16:24.765Z,5.10
2023-11-27T17:18:53.536Z,4.10
2023-11-27T17:21:21.644Z,5.70
2023-11-27T17:23:49.634Z,3.50
2023-11-27T17:26:19.438Z,2.30
2023-11-27T17:28:47.747Z,2.27
2023-11-27T17:31:17.453Z,2.60
2023-11-27T17:33:48.141Z,2.25
2023-11-27T17:36:16.985Z,2.27
2023-11-27T17:38:45.422Z,4.10
2023-11-27T17:41:13.641Z,2.30
2023-11-27T17:43:42.412Z,4.70
2023-11-27T17:46:12.035Z,2.00
2023-11-27T17:48:40.690Z,2.70
2023-11-27T17:51:11.754Z,2.43
2023-11-27T17:53:39.878Z,3.40
2023-11-27T17:56:09.109Z,4.70
2023-11-27T17:58:38.662Z,3.53
2023-11-27T18:01:09.777Z,6.33
2023-11-27T18:03:38.102Z,3.20
2023-11-27T18:06:07.011Z,3.07
2023-11-27T18:08:37.582Z,5.47
2023-11-27T18:11:10.448Z,5.17
2023-11-27T18:13:39.733Z,5.63
2023-11-27T18:16:09.404Z,4.60
2023-11-27T18:18:37.403Z,7.50
2023-11-27T18:21:05.989Z,7.53
2023-11-27T18:23:36.403Z,5.07
2023-11-27T18:26:08.233Z,5.53
2023-11-27T18:28:37.184Z,5.00
2023-11-27T18:31:06.067Z,7.87
2023-11-27T18:33:34.242Z,9.20
2023-11-27T18:36:02.768Z,11.30
2023-11-27T18:38:32.120Z,5.57
2023-11-27T18:41:00.209Z,11.83
2023-11-27T18:43:29.625Z,9.40
2023-11-27T18:45:57.580Z,8.73
2023-11-27T18:48:25.736Z,7.23
2023-11-27T18:50:53.814Z,6.23
2023-11-27T18:53:21.787Z,7.20
2023-11-27T18:55:49.947Z,10.10
2023-11-27T18:58:18.080Z,5.73
2023-11-27T19:00:47.554Z,12.43
2023-11-27T19:03:18.346Z,9.00
2023-11-27T19:05:47.659Z,4.87
2023-11-27T19:08:15.794Z,6.93
2023-11-27T19:10:44.254Z,7.07
2023-11-27T19:13:12.766Z,7.63
2023-11-27T19:15:41.099Z,6.23
2023-11-27T19:18:10.926Z,9.40
2023-11-27T19:20:39.889Z,7.38
2023-11-27T19:23:08.563Z,8.43
2023-11-27T19:25:38.516Z,14.70
2023-11-27T19:28:06.631Z,6.47
2023-11-27T19:30:35.570Z,10.33
2023-11-27T19:33:06.294Z,9.13
2023-11-27T19:35:36.086Z,6.20
2023-11-27T19:38:04.161Z,7.87
2023-11-27T19:40:32.191Z,8.33
2023-11-27T19:43:00.235Z,5.33
2023-11-27T19:45:30.299Z,5.20
2023-11-27T19:47:59.438Z,6.10
2023-11-27T19:50:28.111Z,9.07
2023-11-27T19:52:57.697Z,6.37
2023-11-27T19:55:25.940Z,5.57
2023-11-27T19:57:55.279Z,5.83
2023-11-27T20:00:24.819Z,5.90
2023-11-27T20:02:56.008Z,6.33
2023-11-27T20:05:26.524Z,7.75
2023-11-27T20:07:54.910Z,7.57
2023-11-27T20:10:24.334Z,5.63
2023-11-27T20:12:52.442Z,6.53
2023-11-27T20:15:20.696Z,6.23
2023-11-27T20:17:48.888Z,7.10
2023-11-27T20:20:17.824Z,6.03
2023-11-27T20:22:46.528Z,7.17
2023-11-27T20:25:16.778Z,6.97
2023-11-27T20:27:48.997Z,6.50
2023-11-27T20:30:17.301Z,6.43
2023-11-27T20:32:45.494Z,6.23
2023-11-27T20:35:13.581Z,6.20
2023-11-27T20:37:42.276Z,7.47
2023-11-27T20:40:11.911Z,5.93
2023-11-27T20:42:40.676Z,5.27
2023-11-27T20:45:11.106Z,5.60
2023-11-27T20:47:39.904Z,5.40
2023-11-27T20:50:08.874Z,5.93
2023-11-27T20:52:37.023Z,6.80
2023-11-27T20:55:08.048Z,12.23
2023-11-27T20:57:36.831Z,8.97
2023-11-27T21:00:08.866Z,7.13
2023-11-27T21:02:40.610Z,8.80
2023-11-27T21:05:11.208Z,5.37
2023-11-27T21:07:39.337Z,7.43
2023-11-27T21:10:11.037Z,6.70
2023-11-27T21:12:39.202Z,7.00
2023-11-27T21:15:08.091Z,6.73
2023-11-27T21:17:36.340Z,8.20
2023-11-27T21:20:10.723Z,6.17
2023-11-27T21:22:38.820Z,9.63
2023-11-27T21:25:07.805Z,6.20
2023-11-27T21:27:39.187Z,8.73
2023-11-27T21:30:08.417Z,9.60
2023-11-27T21:32:36.424Z,7.73
2023-11-27T21:35:06.560Z,9.47
2023-11-27T21:37:34.537Z,9.13
2023-11-27T21:40:02.621Z,7.60
2023-11-27T21:42:30.987Z,10.53
2023-11-27T21:44:59.182Z,8.00
2023-11-27T21:47:27.140Z,8.63
2023-11-27T21:49:56.064Z,7.97
2023-11-27T21:52:27.009Z,8.17
2023-11-27T21:54:57.039Z,8.70
2023-11-27T21:57:26.080Z,7.43
2023-11-27T21:59:54.165Z,8.10
2023-11-27T22:02:23.457Z,9.47
2023-11-27T22:04:52.088Z,6.90
2023-11-27T22:07:20.295Z,7.80
2023-11-27T22:09:52.878Z,8.87
2023-11-27T22:12:21.070Z,7.47
2023-11-27T22:14:49.020Z,8.60
2023-11-27T22:17:16.977Z,9.13
2023-11-27T22:19:45.302Z,8.63
2023-11-27T22:22:13.369Z,6.20
2023-11-27T22:24:41.434Z,6.47
2023-11-27T22:27:10.874Z,7.00
2023-11-27T22:29:43.263Z,8.13
2023-11-27T22:32:11.327Z,5.33
2023-11-27T22:34:39.316Z,7.00
2023-11-27T22:37:07.541Z,9.87
2023-11-27T22:39:35.504Z,8.13
2023-11-27T22:42:03.412Z,8.13
2023-11-27T22:44:32.877Z,6.40
2023-11-27T22:47:00.947Z,7.27
2023-11-27T22:49:29.025Z,7.43
2023-11-27T22:51:57.940Z,6.53
2023-11-27T22:54:26.385Z,8.73
2023-11-27T22:56:54.341Z,7.83
2023-11-27T22:59:22.711Z,6.60
2023-11-27T23:01:53.732Z,8.13
2023-11-27T23:04:22.209Z,7.60
2023-11-27T23:06:50.277Z,10.57
2023-11-27T23:09:19.210Z,8.13
2023-11-27T23:11:49.875Z,9.65
2023-11-27T23:14:17.840Z,7.80
2023-11-27T23:16:47.242Z,8.95
2023-11-27T23:19:16.824Z,8.93
2023-11-27T23:21:45.168Z,7.97
2023-11-27T23:24:20.654Z,8.37
2023-11-27T23:26:55.048Z,8.20
2023-11-27T23:29:23.947Z,7.43
2023-11-27T23:31:55.460Z,7.43
2023-11-27T23:34:29.773Z,8.60
2023-11-27T23:36:57.914Z,6.93
2023-11-27T23:39:25.902Z,7.57
2023-11-27T23:41:54.361Z,7.67
2023-11-27T23:44:22.822Z,6.77
2023-11-27T23:46:52.337Z,6.40
2023-11-27T23:49:20.801Z,8.60
2023-11-27T23:51:52.683Z,5.57
2023-11-27T23:54:20.898Z,5.13
2023-11-27T23:56:49.716Z,5.90
2023-11-27T23:59:17.717Z,4.93
